JBU956 KSYR-KBOS
Flight info
| Callsign | JBU956 |
|---|---|
| Flight time | N/A |
| Altitude | 17000 |
| Route | SYR T608 MARIA PONCT JFUND2 |
| Aircraft | A320/M-SDE3FGHIRWY/LB1 |
Departure
| Time | 2026-04-29 22:53 |
|---|---|
| Airport | Syracuse Hancock International Airport (KSYR) |
Arrival
| Time | N/A |
|---|---|
| Airport | Boston Logan International Airport (KBOS) |
| Time | Latitude | Longitude | Altitude | Speed | Heading |
|---|---|---|---|---|---|
| 2026-04-29 22:38 | 43.11247 | -76.10993 | 426 ft | 0 kts | 8° |
| 2026-04-29 22:44 | 43.11241 | -76.10994 | 419 ft | 2 kts | 8° |
| 2026-04-29 22:44 | 43.11229 | -76.10997 | 416 ft | 2 kts | 8° |
| 2026-04-29 22:44 | 43.11216 | -76.10996 | 419 ft | 2 kts | 311° |
| 2026-04-29 22:44 | 43.11211 | -76.10988 | 418 ft | 0 kts | 276° |
| 2026-04-29 22:46 | 43.11210 | -76.10990 | 418 ft | 1 kts | 271° |
| 2026-04-29 22:46 | 43.11208 | -76.11041 | 419 ft | 10 kts | 266° |
| 2026-04-29 22:46 | 43.11166 | -76.11139 | 424 ft | 12 kts | 201° |
| 2026-04-29 22:46 | 43.11075 | -76.11146 | 425 ft | 8 kts | 176° |
| 2026-04-29 22:47 | 43.11068 | -76.11145 | 426 ft | 0 kts | 176° |
| 2026-04-29 22:47 | 43.11059 | -76.11144 | 420 ft | 3 kts | 176° |
| 2026-04-29 22:47 | 43.11023 | -76.11150 | 424 ft | 8 kts | 199° |
| 2026-04-29 22:47 | 43.10990 | -76.11251 | 429 ft | 17 kts | 266° |
| 2026-04-29 22:48 | 43.10982 | -76.11445 | 425 ft | 24 kts | 267° |
| 2026-04-29 22:48 | 43.10975 | -76.11695 | 425 ft | 29 kts | 268° |
| 2026-04-29 22:48 | 43.10964 | -76.12002 | 426 ft | 34 kts | 267° |
| 2026-04-29 22:48 | 43.10953 | -76.12330 | 429 ft | 36 kts | 267° |
| 2026-04-29 22:49 | 43.10946 | -76.12576 | 437 ft | 17 kts | 262° |
| 2026-04-29 22:49 | 43.10917 | -76.12628 | 426 ft | 0 kts | 191° |
| 2026-04-29 22:52 | 43.10916 | -76.12628 | 427 ft | 1 kts | 191° |
| 2026-04-29 22:52 | 43.10875 | -76.12617 | 428 ft | 13 kts | 149° |
| 2026-04-29 22:52 | 43.10815 | -76.12529 | 434 ft | 8 kts | 98° |
| 2026-04-29 22:53 | 43.10835 | -76.12210 | 429 ft | 69 kts | 89° |
| 2026-04-29 22:53 | 43.10865 | -76.11284 | 431 ft | 124 kts | 87° |
| 2026-04-29 22:53 | 43.10909 | -76.09963 | 693 ft | 145 kts | 88° |
| 2026-04-29 22:53 | 43.10940 | -76.08571 | 1265 ft | 146 kts | 91° |
| 2026-04-29 22:54 | 43.10972 | -76.07165 | 1824 ft | 152 kts | 94° |
| 2026-04-29 22:54 | 43.11001 | -76.05616 | 2119 ft | 174 kts | 96° |
| 2026-04-29 22:54 | 43.11030 | -76.03856 | 2392 ft | 197 kts | 96° |
| 2026-04-29 22:54 | 43.11063 | -76.01853 | 2719 ft | 223 kts | 96° |
| 2026-04-29 22:55 | 43.11102 | -75.99611 | 3165 ft | 248 kts | 95° |
| 2026-04-29 22:55 | 43.11152 | -75.97142 | 3735 ft | 269 kts | 94° |
| 2026-04-29 22:55 | 43.11150 | -75.94591 | 4033 ft | 272 kts | 104° |
| 2026-04-29 22:55 | 43.10741 | -75.92066 | 4931 ft | 273 kts | 109° |
| 2026-04-29 22:56 | 43.10322 | -75.89508 | 5860 ft | 278 kts | 107° |
| 2026-04-29 22:56 | 43.09911 | -75.86905 | 6776 ft | 281 kts | 107° |
| 2026-04-29 22:56 | 43.09498 | -75.84273 | 7709 ft | 284 kts | 107° |
| 2026-04-29 22:56 | 43.09082 | -75.81628 | 8637 ft | 286 kts | 107° |
| 2026-04-29 22:57 | 43.08657 | -75.78955 | 9548 ft | 289 kts | 108° |
| 2026-04-29 22:57 | 43.08225 | -75.76266 | 10333 ft | 294 kts | 108° |
| 2026-04-29 22:57 | 43.07756 | -75.73428 | 10602 ft | 317 kts | 108° |
| 2026-04-29 22:57 | 43.07249 | -75.70376 | 10796 ft | 341 kts | 107° |
| 2026-04-29 22:58 | 43.06716 | -75.67155 | 10944 ft | 363 kts | 107° |
| 2026-04-29 22:58 | 43.06143 | -75.63679 | 11112 ft | 383 kts | 107° |
| 2026-04-29 22:58 | 43.05556 | -75.60087 | 11634 ft | 391 kts | 107° |
| 2026-04-29 22:58 | 43.04964 | -75.56435 | 12260 ft | 396 kts | 107° |
| 2026-04-29 22:59 | 43.04364 | -75.52735 | 12903 ft | 401 kts | 107° |
| 2026-04-29 22:59 | 43.03757 | -75.49000 | 13555 ft | 405 kts | 107° |
| 2026-04-29 22:59 | 43.03137 | -75.45207 | 14147 ft | 410 kts | 107° |
| 2026-04-29 22:59 | 43.02508 | -75.41395 | 14721 ft | 414 kts | 106° |
| 2026-04-29 23:00 | 43.01871 | -75.37553 | 15299 ft | 417 kts | 106° |
| 2026-04-29 23:00 | 43.01231 | -75.33718 | 15856 ft | 421 kts | 106° |
| 2026-04-29 23:00 | 43.00573 | -75.29794 | 16397 ft | 425 kts | 106° |
| 2026-04-29 23:00 | 42.99907 | -75.25838 | 16871 ft | 430 kts | 106° |
| 2026-04-29 23:01 | 42.99237 | -75.21861 | 17010 ft | 433 kts | 106° |
| 2026-04-29 23:01 | 42.98554 | -75.17813 | 17039 ft | 439 kts | 106° |
| 2026-04-29 23:01 | 42.97868 | -75.13739 | 17029 ft | 441 kts | 106° |
| 2026-04-29 23:01 | 42.97183 | -75.09666 | 17032 ft | 441 kts | 106° |
| 2026-04-29 23:02 | 42.96494 | -75.05581 | 17018 ft | 441 kts | 105° |
| 2026-04-29 23:02 | 42.95804 | -75.01509 | 17034 ft | 440 kts | 105° |
| 2026-04-29 23:02 | 42.95111 | -74.97435 | 17032 ft | 440 kts | 105° |
| 2026-04-29 23:02 | 42.94426 | -74.93424 | 17023 ft | 440 kts | 105° |
| 2026-04-29 23:03 | 42.93729 | -74.89355 | 17035 ft | 441 kts | 105° |
| 2026-04-29 23:03 | 42.93031 | -74.85281 | 17024 ft | 441 kts | 105° |
| 2026-04-29 23:03 | 42.92335 | -74.81210 | 17036 ft | 440 kts | 105° |
| 2026-04-29 23:03 | 42.91638 | -74.77152 | 17035 ft | 440 kts | 106° |
| 2026-04-29 23:04 | 42.90935 | -74.73087 | 17023 ft | 440 kts | 106° |
| 2026-04-29 23:04 | 42.90230 | -74.69022 | 17030 ft | 440 kts | 106° |
| 2026-04-29 23:04 | 42.89524 | -74.64963 | 17026 ft | 440 kts | 106° |
| 2026-04-29 23:04 | 42.89058 | -74.62277 | 17015 ft | 440 kts | 106° |
| 2026-04-29 23:05 | 42.88354 | -74.58221 | 17017 ft | 440 kts | 106° |
| 2026-04-29 23:05 | 42.87648 | -74.54161 | 17022 ft | 440 kts | 106° |
| 2026-04-29 23:05 | 42.86943 | -74.50112 | 17014 ft | 440 kts | 106° |
| 2026-04-29 23:05 | 42.86235 | -74.46052 | 17018 ft | 440 kts | 106° |
| 2026-04-29 23:06 | 42.85295 | -74.40681 | 17018 ft | 440 kts | 106° |
| 2026-04-29 23:06 | 42.84581 | -74.36619 | 17020 ft | 440 kts | 106° |
| 2026-04-29 23:06 | 42.84100 | -74.33886 | 17003 ft | 440 kts | 107° |
| 2026-04-29 23:06 | 42.83383 | -74.29828 | 17007 ft | 439 kts | 107° |
| 2026-04-29 23:07 | 42.82677 | -74.25842 | 17020 ft | 439 kts | 107° |
| 2026-04-29 23:07 | 42.81960 | -74.21805 | 17022 ft | 439 kts | 107° |
| 2026-04-29 23:07 | 42.81239 | -74.17765 | 17031 ft | 439 kts | 107° |
| 2026-04-29 23:07 | 42.80518 | -74.13727 | 17031 ft | 439 kts | 107° |
| 2026-04-29 23:08 | 42.79796 | -74.09682 | 17032 ft | 439 kts | 107° |
| 2026-04-29 23:08 | 42.79073 | -74.05645 | 17046 ft | 439 kts | 107° |
| 2026-04-29 23:08 | 42.78350 | -74.01612 | 17046 ft | 439 kts | 107° |
| 2026-04-29 23:08 | 42.77624 | -73.97578 | 17030 ft | 439 kts | 107° |
| 2026-04-29 23:09 | 42.76898 | -73.93550 | 17040 ft | 438 kts | 107° |
| 2026-04-29 23:09 | 42.76173 | -73.89530 | 17044 ft | 438 kts | 107° |
| 2026-04-29 23:09 | 42.75446 | -73.85498 | 17044 ft | 438 kts | 107° |
| 2026-04-29 23:09 | 42.74842 | -73.81489 | 17042 ft | 440 kts | 100° |
| 2026-04-29 23:10 | 42.74658 | -73.77323 | 17040 ft | 443 kts | 93° |
| 2026-04-29 23:10 | 42.74636 | -73.73136 | 17037 ft | 443 kts | 93° |
| 2026-04-29 23:10 | 42.74614 | -73.68953 | 17039 ft | 443 kts | 93° |
| 2026-04-29 23:10 | 42.74587 | -73.64773 | 17024 ft | 442 kts | 93° |
| 2026-04-29 23:11 | 42.74556 | -73.60596 | 17031 ft | 442 kts | 93° |
| 2026-04-29 23:11 | 42.74522 | -73.56410 | 17032 ft | 442 kts | 93° |
| 2026-04-29 23:11 | 42.74489 | -73.52221 | 17035 ft | 442 kts | 93° |
| 2026-04-29 23:11 | 42.74457 | -73.48038 | 17053 ft | 442 kts | 93° |
| 2026-04-29 23:12 | 42.74422 | -73.43853 | 17052 ft | 442 kts | 93° |
| 2026-04-29 23:12 | 42.74384 | -73.39720 | 17055 ft | 443 kts | 93° |
| 2026-04-29 23:12 | 42.74342 | -73.35535 | 17059 ft | 442 kts | 93° |
| 2026-04-29 23:12 | 42.74298 | -73.31361 | 17060 ft | 442 kts | 93° |
| 2026-04-29 23:13 | 42.74256 | -73.27178 | 17055 ft | 442 kts | 93° |
| 2026-04-29 23:13 | 42.74209 | -73.22985 | 17057 ft | 442 kts | 93° |
| 2026-04-29 23:13 | 42.74161 | -73.18804 | 17059 ft | 442 kts | 93° |
| 2026-04-29 23:13 | 42.74112 | -73.14623 | 17058 ft | 442 kts | 93° |
| 2026-04-29 23:14 | 42.73954 | -73.10460 | 17057 ft | 440 kts | 99° |
| 2026-04-29 23:14 | 42.73493 | -73.06352 | 17068 ft | 440 kts | 101° |
| 2026-04-29 23:14 | 42.73015 | -73.02236 | 17068 ft | 440 kts | 101° |
| 2026-04-29 23:14 | 42.72538 | -72.98134 | 17070 ft | 440 kts | 101° |
| 2026-04-29 23:15 | 42.72068 | -72.94080 | 17073 ft | 439 kts | 101° |
| 2026-04-29 23:15 | 42.71595 | -72.89986 | 17089 ft | 438 kts | 101° |
| 2026-04-29 23:15 | 42.71123 | -72.85895 | 17096 ft | 437 kts | 101° |
| 2026-04-29 23:15 | 42.70648 | -72.81816 | 17098 ft | 436 kts | 101° |
| 2026-04-29 23:16 | 42.70171 | -72.77745 | 17103 ft | 436 kts | 101° |
| 2026-04-29 23:16 | 42.69690 | -72.73688 | 17104 ft | 436 kts | 102° |
| 2026-04-29 23:16 | 42.69209 | -72.69626 | 17104 ft | 435 kts | 101° |
| 2026-04-29 23:16 | 42.68725 | -72.65565 | 17112 ft | 435 kts | 102° |
| 2026-04-29 23:17 | 42.68241 | -72.61502 | 16976 ft | 436 kts | 102° |
| 2026-04-29 23:17 | 42.67755 | -72.57453 | 16901 ft | 433 kts | 102° |
| 2026-04-29 23:17 | 42.67266 | -72.53419 | 16899 ft | 432 kts | 102° |
| 2026-04-29 23:17 | 42.66781 | -72.49442 | 16907 ft | 432 kts | 102° |
| 2026-04-29 23:18 | 42.66286 | -72.45405 | 16904 ft | 433 kts | 102° |
| 2026-04-29 23:18 | 42.65792 | -72.41378 | 16910 ft | 433 kts | 102° |
| 2026-04-29 23:18 | 42.65295 | -72.37351 | 16911 ft | 433 kts | 102° |
| 2026-04-29 23:18 | 42.64810 | -72.33411 | 16938 ft | 411 kts | 102° |
| 2026-04-29 23:19 | 42.64356 | -72.29672 | 16934 ft | 391 kts | 102° |
| 2026-04-29 23:19 | 42.63943 | -72.26117 | 16934 ft | 372 kts | 102° |
| 2026-04-29 23:19 | 42.63558 | -72.22727 | 16931 ft | 354 kts | 102° |
| 2026-04-29 23:19 | 42.63186 | -72.19456 | 16930 ft | 350 kts | 102° |
| 2026-04-29 23:20 | 42.62809 | -72.16198 | 16946 ft | 349 kts | 102° |
| 2026-04-29 23:20 | 42.62428 | -72.12934 | 16944 ft | 349 kts | 102° |
| 2026-04-29 23:20 | 42.62049 | -72.09728 | 16943 ft | 349 kts | 102° |
| 2026-04-29 23:20 | 42.61663 | -72.06475 | 16948 ft | 349 kts | 102° |
| 2026-04-29 23:21 | 42.61276 | -72.03223 | 16949 ft | 349 kts | 102° |
| 2026-04-29 23:21 | 42.60888 | -72.00014 | 16964 ft | 338 kts | 103° |
| 2026-04-29 23:21 | 42.60511 | -71.96933 | 16969 ft | 326 kts | 103° |
| 2026-04-29 23:21 | 42.60135 | -71.93918 | 16972 ft | 324 kts | 103° |
| 2026-04-29 23:22 | 42.59756 | -71.90905 | 16954 ft | 324 kts | 103° |
| 2026-04-29 23:22 | 42.59374 | -71.87895 | 16946 ft | 324 kts | 103° |
| 2026-04-29 23:22 | 42.58991 | -71.84859 | 16526 ft | 325 kts | 103° |
| 2026-04-29 23:22 | 42.58621 | -71.81895 | 16269 ft | 322 kts | 103° |
| 2026-04-29 23:23 | 42.58203 | -71.78915 | 16022 ft | 320 kts | 104° |
| 2026-04-29 23:23 | 42.57741 | -71.75946 | 15465 ft | 325 kts | 105° |
| 2026-04-29 23:23 | 42.57253 | -71.72960 | 15168 ft | 321 kts | 105° |
| 2026-04-29 23:23 | 42.56771 | -71.70033 | 14794 ft | 316 kts | 105° |
| 2026-04-29 23:24 | 42.56296 | -71.67134 | 14325 ft | 314 kts | 105° |
| 2026-04-29 23:24 | 42.55831 | -71.64259 | 13710 ft | 311 kts | 105° |
| 2026-04-29 23:24 | 42.55374 | -71.61397 | 13016 ft | 309 kts | 105° |
| 2026-04-29 23:24 | 42.54918 | -71.58565 | 12372 ft | 306 kts | 106° |
| 2026-04-29 23:25 | 42.54396 | -71.55787 | 11739 ft | 302 kts | 108° |
| 2026-04-29 23:25 | 42.53839 | -71.53115 | 11333 ft | 298 kts | 109° |
| 2026-04-29 23:25 | 42.53255 | -71.50414 | 11045 ft | 297 kts | 109° |
| 2026-04-29 23:25 | 42.52678 | -71.47740 | 10758 ft | 295 kts | 109° |
| 2026-04-29 23:26 | 42.52107 | -71.45072 | 10477 ft | 293 kts | 108° |
| 2026-04-29 23:26 | 42.51546 | -71.42423 | 10248 ft | 290 kts | 108° |
| 2026-04-29 23:26 | 42.50993 | -71.39793 | 10140 ft | 291 kts | 108° |
| 2026-04-29 23:26 | 42.50441 | -71.37150 | 10016 ft | 291 kts | 108° |
| 2026-04-29 23:27 | 42.49899 | -71.34508 | 9769 ft | 291 kts | 108° |
| 2026-04-29 23:27 | 42.49372 | -71.31869 | 9491 ft | 288 kts | 107° |
| 2026-04-29 23:27 | 42.48856 | -71.29258 | 9223 ft | 286 kts | 107° |
| 2026-04-29 23:27 | 42.48350 | -71.26697 | 8964 ft | 285 kts | 107° |
| 2026-04-29 23:28 | 42.47836 | -71.24117 | 8720 ft | 283 kts | 108° |
| 2026-04-29 23:28 | 42.47319 | -71.21547 | 8470 ft | 282 kts | 107° |
| 2026-04-29 23:28 | 42.46805 | -71.18988 | 8206 ft | 281 kts | 108° |
| 2026-04-29 23:28 | 42.46297 | -71.16445 | 7945 ft | 279 kts | 107° |
| 2026-04-29 23:29 | 42.45965 | -71.13845 | 7691 ft | 280 kts | 98° |
| 2026-04-29 23:29 | 42.45734 | -71.11246 | 7430 ft | 278 kts | 99° |
| 2026-04-29 23:29 | 42.45501 | -71.08664 | 7223 ft | 273 kts | 99° |
| 2026-04-29 23:29 | 42.45272 | -71.06151 | 7098 ft | 264 kts | 100° |
| 2026-04-29 23:30 | 42.44739 | -71.03851 | 6972 ft | 251 kts | 122° |
| 2026-04-29 23:30 | 42.43694 | -71.02077 | 6823 ft | 242 kts | 141° |
| 2026-04-29 23:30 | 42.42295 | -71.00914 | 6765 ft | 234 kts | 155° |
| 2026-04-29 23:30 | 42.40831 | -70.99948 | 6713 ft | 235 kts | 154° |
| 2026-04-29 23:31 | 42.39368 | -70.98973 | 6666 ft | 234 kts | 155° |
| 2026-04-29 23:31 | 42.37908 | -70.98003 | 6601 ft | 233 kts | 155° |
| 2026-04-29 23:31 | 42.36453 | -70.97034 | 6516 ft | 234 kts | 154° |
| 2026-04-29 23:31 | 42.34995 | -70.96062 | 6431 ft | 233 kts | 154° |
| 2026-04-29 23:32 | 42.33543 | -70.95092 | 6345 ft | 233 kts | 154° |
| 2026-04-29 23:32 | 42.32053 | -70.94221 | 6249 ft | 234 kts | 165° |
| 2026-04-29 23:32 | 42.30441 | -70.93992 | 6162 ft | 232 kts | 184° |
| 2026-04-29 23:32 | 42.28886 | -70.94463 | 6062 ft | 232 kts | 197° |
| 2026-04-29 23:33 | 42.27355 | -70.95136 | 5959 ft | 231 kts | 197° |
| 2026-04-29 23:33 | 42.25822 | -70.95800 | 5627 ft | 232 kts | 196° |
| 2026-04-29 23:33 | 42.24288 | -70.96459 | 5306 ft | 231 kts | 196° |
| 2026-04-29 23:33 | 42.22759 | -70.97116 | 4989 ft | 230 kts | 195° |
| 2026-04-29 23:34 | 42.21232 | -70.97772 | 4638 ft | 231 kts | 195° |
| 2026-04-29 23:34 | 42.19697 | -70.98428 | 4286 ft | 232 kts | 197° |
| 2026-04-29 23:34 | 42.18175 | -70.99079 | 4070 ft | 226 kts | 196° |
| 2026-04-29 23:34 | 42.16708 | -70.99724 | 3939 ft | 217 kts | 197° |
| 2026-04-29 23:35 | 42.15309 | -71.00371 | 3777 ft | 209 kts | 198° |
| 2026-04-29 23:35 | 42.13959 | -71.01003 | 3524 ft | 207 kts | 198° |
| 2026-04-29 23:35 | 42.12598 | -71.01643 | 3227 ft | 207 kts | 198° |
| 2026-04-29 23:35 | 42.11381 | -71.02606 | 3010 ft | 203 kts | 230° |
| 2026-04-29 23:36 | 42.10825 | -71.04349 | 2985 ft | 204 kts | 266° |
| 2026-04-29 23:36 | 42.11157 | -71.06155 | 2982 ft | 200 kts | 305° |
| 2026-04-29 23:36 | 42.12218 | -71.07308 | 2993 ft | 197 kts | 338° |
| 2026-04-29 23:36 | 42.13519 | -71.07909 | 2992 ft | 198 kts | 345° |
| 2026-04-29 23:37 | 42.14841 | -71.08404 | 2987 ft | 198 kts | 346° |
| 2026-04-29 23:37 | 42.16174 | -71.08887 | 2989 ft | 198 kts | 346° |
| 2026-04-29 23:37 | 42.17516 | -71.09302 | 2983 ft | 198 kts | 358° |
| 2026-04-29 23:37 | 42.18835 | -71.09032 | 2992 ft | 195 kts | 21° |
| 2026-04-29 23:38 | 42.20113 | -71.08415 | 2991 ft | 196 kts | 22° |
| 2026-04-29 23:38 | 42.21395 | -71.07793 | 2938 ft | 196 kts | 21° |
| 2026-04-29 23:38 | 42.22671 | -71.07178 | 2732 ft | 194 kts | 21° |
| 2026-04-29 23:38 | 42.23933 | -71.06571 | 2519 ft | 190 kts | 20° |
| 2026-04-29 23:39 | 42.25169 | -71.05975 | 2238 ft | 188 kts | 22° |
| 2026-04-29 23:39 | 42.26382 | -71.05392 | 1982 ft | 180 kts | 23° |
| 2026-04-29 23:39 | 42.27509 | -71.04851 | 1776 ft | 164 kts | 24° |
| 2026-04-29 23:39 | 42.28519 | -71.04365 | 1553 ft | 145 kts | 24° |
| 2026-04-29 23:40 | 42.29440 | -71.03920 | 1357 ft | 138 kts | 24° |
| 2026-04-29 23:40 | 42.30322 | -71.03494 | 1163 ft | 133 kts | 25° |
| 2026-04-29 23:40 | 42.31185 | -71.03076 | 981 ft | 132 kts | 24° |
| 2026-04-29 23:40 | 42.32047 | -71.02659 | 778 ft | 130 kts | 22° |
| 2026-04-29 23:41 | 42.32893 | -71.02250 | 604 ft | 127 kts | 23° |
| 2026-04-29 23:41 | 42.33719 | -71.01852 | 424 ft | 126 kts | 25° |
| 2026-04-29 23:41 | 42.34550 | -71.01454 | 250 ft | 127 kts | 22° |
| 2026-04-29 23:41 | 42.35373 | -71.01062 | 68 ft | 124 kts | 24° |
| 2026-04-29 23:42 | 42.36141 | -71.00679 | 23 ft | 106 kts | 20° |